Marfret Guyane — FNMV — position and weather

sailwx.info

Track history (hours):
 
Tides and Currents Weather Stations Pressure Air Temp Water Temp Dewpoint Dewpoint Depression Visibility Wind Speed Wind Dir Waves Ship Positions

Marfret Guyane

Last reported at 2017-Mar-25 11:33 UTC. Time now 2017-Mar-25 11:42 UTC.
Position N 51°28' E 000°20'.

Length 170 m; draft 7 m.

Type: Ship (hazmat cat A). MMSI: 226324000.

Date/timePositionNaut miles runAvg speedWind from/ knotsBaromVisibWave heightAir tempDewpointWater temp
2017-Mar-25 11:33N 51°28' E 000°20'0 0.0
2017-Mar-25 10:34N 51°28' E 000°20'0 0.0
2017-Mar-25 09:34N 51°28' E 000°20'0 0.0
2017-Mar-25 08:33N 51°28' E 000°20'0 0.0
2017-Mar-25 07:34N 51°28' E 000°20'0 0.0
2017-Mar-25 06:33N 51°28' E 000°20'0 0.0
2017-Mar-25 05:33N 51°28' E 000°20'2 2.2
2017-Mar-25 04:34N 51°27' E 000°23'1312.5
2017-Mar-25 03:33N 51°30' E 000°43'1414.0
2017-Mar-25 02:33N 51°30' E 001°05'1110.9
2017-Mar-25 01:34N 51°28' E 001°23'8 7.9
2017-Mar-25 00:33N 51°24' E 001°33'8 7.9
2017-Mar-24 23:33N 51°16' E 001°38'1110.7
2017-Mar-24 22:33N 51°06' E 001°39'1313.3
2017-Mar-24 21:33N 50°55' E 001°27'1716.2
2017-Mar-24 20:30N 50°39' E 001°16'1616.7
2017-Mar-24 19:33N 50°29' E 000°56'1616.1
2017-Mar-24 18:31N 50°25' E 000°31'1515.9
2017-Mar-24 17:34N 50°22' E 000°08'1716.3
2017-Mar-24 16:31N 50°17' W 000°18'1616.7
2017-Mar-24 15:34N 50°13' W 000°42'1716.1
2017-Mar-24 14:31N 50°08' W 001°07'1415.0
2017-Mar-24 13:33N 50°03' W 001°28'1414.1
2017-Mar-24 12:34N 49°58' W 001°49'1313.3
2017-Mar-24 11:33N 49°55' W 002°09'1513.8
2017-Mar-24 10:26N 49°51' W 002°32'1314.7
2017-Mar-24 09:33N 49°48' W 002°51'10215.9
2017-Mar-24 03:08N 48°58' W 005°09'914.8
2017-Mar-24 02:30N 48°53' W 005°21'60314.0
2017-Mar-22 07:24N 39°22' W 009°51'1315.6
2017-Mar-22 06:33N 39°09' W 009°51'1615.9
2017-Mar-22 05:33N 38°54' W 009°51'1615.8
2017-Mar-22 04:34N 38°38' W 009°50'1615.6
2017-Mar-22 03:33N 38°23' W 009°45'1615.8
2017-Mar-22 02:33N 38°08' W 009°39'1716.1
2017-Mar-22 01:31N 37°51' W 009°33'22014.2
2017-Mar-21 10:03N 35°58' W 005°37'714.4
2017-Mar-21 09:33N 36°00' W 005°28'8 7.8
2017-Mar-21 08:32N 36°08' W 005°25'0 0.0
2017-Mar-21 07:32N 36°08' W 005°25'0 0.0
2017-Mar-21 06:32N 36°08' W 005°25'0 0.0
2017-Mar-21 05:32N 36°08' W 005°25'0 0.0
2017-Mar-21 04:32N 36°08' W 005°25'0 0.0
2017-Mar-21 03:32N 36°08' W 005°25'0 0.0
2017-Mar-21 02:32N 36°08' W 005°25'0 0.0
2017-Mar-21 01:32N 36°08' W 005°25'0 0.0
2017-Mar-21 00:32N 36°08' W 005°25'3 2.8
2017-Mar-20 23:34N 36°06' W 005°23'7 7.2
2017-Mar-20 22:34N 35°59' W 005°23'1212.4
2017-Mar-20 21:33N 35°55' W 005°38'60316.7
2017-Mar-19 09:32N 28°51' W 014°05'  
Track history (hours):
 
Tides and Currents Weather Stations Pressure Air Temp Water Temp Dewpoint Dewpoint Depression Visibility Wind Speed Wind Dir Waves Ship Positions

Marfret Guyane

Last reported at 2017-Mar-25 11:33 UTC. Time now 2017-Mar-25 11:42 UTC.
Position N 51°28' E 000°20'.

Length 170 m; draft 7 m.

Type: Ship (hazmat cat A). MMSI: 226324000.

Date/timePositionNaut miles runAvg speedWind from/ knotsBaromVisibWave heightAir tempDewpointWater temp
2017-Mar-25 11:33N 51°28' E 000°20'0 0.0
2017-Mar-25 10:34N 51°28' E 000°20'0 0.0
2017-Mar-25 09:34N 51°28' E 000°20'0 0.0
2017-Mar-25 08:33N 51°28' E 000°20'0 0.0
2017-Mar-25 07:34N 51°28' E 000°20'0 0.0
2017-Mar-25 06:33N 51°28' E 000°20'0 0.0
2017-Mar-25 05:33N 51°28' E 000°20'2 2.2
2017-Mar-25 04:34N 51°27' E 000°23'1312.5
2017-Mar-25 03:33N 51°30' E 000°43'1414.0
2017-Mar-25 02:33N 51°30' E 001°05'1110.9
2017-Mar-25 01:34N 51°28' E 001°23'8 7.9
2017-Mar-25 00:33N 51°24' E 001°33'8 7.9
2017-Mar-24 23:33N 51°16' E 001°38'1110.7
2017-Mar-24 22:33N 51°06' E 001°39'1313.3
2017-Mar-24 21:33N 50°55' E 001°27'1716.2
2017-Mar-24 20:30N 50°39' E 001°16'1616.7
2017-Mar-24 19:33N 50°29' E 000°56'1616.1
2017-Mar-24 18:31N 50°25' E 000°31'1515.9
2017-Mar-24 17:34N 50°22' E 000°08'1716.3
2017-Mar-24 16:31N 50°17' W 000°18'1616.7
2017-Mar-24 15:34N 50°13' W 000°42'1716.1
2017-Mar-24 14:31N 50°08' W 001°07'1415.0
2017-Mar-24 13:33N 50°03' W 001°28'1414.1
2017-Mar-24 12:34N 49°58' W 001°49'1313.3
2017-Mar-24 11:33N 49°55' W 002°09'1513.8
2017-Mar-24 10:26N 49°51' W 002°32'1314.7
2017-Mar-24 09:33N 49°48' W 002°51'10215.9
2017-Mar-24 03:08N 48°58' W 005°09'914.8
2017-Mar-24 02:30N 48°53' W 005°21'60314.0
2017-Mar-22 07:24N 39°22' W 009°51'1315.6
2017-Mar-22 06:33N 39°09' W 009°51'1615.9
2017-Mar-22 05:33N 38°54' W 009°51'1615.8
2017-Mar-22 04:34N 38°38' W 009°50'1615.6
2017-Mar-22 03:33N 38°23' W 009°45'1615.8
2017-Mar-22 02:33N 38°08' W 009°39'1716.1
2017-Mar-22 01:31N 37°51' W 009°33'22014.2
2017-Mar-21 10:03N 35°58' W 005°37'714.4
2017-Mar-21 09:33N 36°00' W 005°28'8 7.8
2017-Mar-21 08:32N 36°08' W 005°25'0 0.0
2017-Mar-21 07:32N 36°08' W 005°25'0 0.0
2017-Mar-21 06:32N 36°08' W 005°25'0 0.0
2017-Mar-21 05:32N 36°08' W 005°25'0 0.0
2017-Mar-21 04:32N 36°08' W 005°25'0 0.0
2017-Mar-21 03:32N 36°08' W 005°25'0 0.0
2017-Mar-21 02:32N 36°08' W 005°25'0 0.0
2017-Mar-21 01:32N 36°08' W 005°25'0 0.0
2017-Mar-21 00:32N 36°08' W 005°25'3 2.8
2017-Mar-20 23:34N 36°06' W 005°23'7 7.2
2017-Mar-20 22:34N 35°59' W 005°23'1212.4
2017-Mar-20 21:33N 35°55' W 005°38'60316.7
2017-Mar-19 09:32N 28°51' W 014°05'  

Dump ship's entire track history